sensor_id;sensor_type;location;lat;lon;timestamp;temperature;humidity
4090;DHT22;2059;48.538;12.146;2023-05-16T00:01:09;14.50;99.90
4090;DHT22;2059;48.538;12.146;2023-05-16T00:06:12;14.50;99.90
4090;DHT22;2059;48.538;12.146;2023-05-16T00:11:15;14.50;99.90
4090;DHT22;2059;48.538;12.146;2023-05-16T00:16:18;14.40;99.90
4090;DHT22;2059;48.538;12.146;2023-05-16T00:21:21;14.40;99.90
4090;DHT22;2059;48.538;12.146;2023-05-16T00:26:23;14.50;99.90
4090;DHT22;2059;48.538;12.146;2023-05-16T00:31:27;14.50;99.90
4090;DHT22;2059;48.538;12.146;2023-05-16T00:36:28;14.40;99.90
4090;DHT22;2059;48.538;12.146;2023-05-16T00:41:33;14.40;99.90
4090;DHT22;2059;48.538;12.146;2023-05-16T00:46:36;14.40;99.90
4090;DHT22;2059;48.538;12.146;2023-05-16T00:51:38;14.40;99.90
4090;DHT22;2059;48.538;12.146;2023-05-16T00:56:40;14.40;99.90
4090;DHT22;2059;48.538;12.146;2023-05-16T01:01:45;14.40;99.90
4090;DHT22;2059;48.538;12.146;2023-05-16T01:06:47;14.50;99.90
4090;DHT22;2059;48.538;12.146;2023-05-16T01:11:51;14.40;99.90
4090;DHT22;2059;48.538;12.146;2023-05-16T01:17:02;14.40;99.90
4090;DHT22;2059;48.538;12.146;2023-05-16T01:22:11;14.40;99.90
4090;DHT22;2059;48.538;12.146;2023-05-16T01:27:16;14.30;99.90
4090;DHT22;2059;48.538;12.146;2023-05-16T01:32:18;14.30;99.90
4090;DHT22;2059;48.538;12.146;2023-05-16T01:37:28;14.30;99.90
4090;DHT22;2059;48.538;12.146;2023-05-16T01:42:36;14.30;99.90
4090;DHT22;2059;48.538;12.146;2023-05-16T01:47:41;14.30;99.90
4090;DHT22;2059;48.538;12.146;2023-05-16T01:52:50;14.30;99.90
4090;DHT22;2059;48.538;12.146;2023-05-16T01:57:58;14.20;99.90
4090;DHT22;2059;48.538;12.146;2023-05-16T02:03:00;14.20;99.90
4090;DHT22;2059;48.538;12.146;2023-05-16T02:08:02;14.20;99.90
4090;DHT22;2059;48.538;12.146;2023-05-16T02:13:05;14.20;99.90
4090;DHT22;2059;48.538;12.146;2023-05-16T02:18:07;14.10;99.90
4090;DHT22;2059;48.538;12.146;2023-05-16T02:23:10;14.10;99.90
4090;DHT22;2059;48.538;12.146;2023-05-16T02:28:13;14.10;99.90
4090;DHT22;2059;48.538;12.146;2023-05-16T02:33:15;14.10;99.90
4090;DHT22;2059;48.538;12.146;2023-05-16T02:38:17;14.20;99.90
4090;DHT22;2059;48.538;12.146;2023-05-16T02:43:21;14.10;99.90
4090;DHT22;2059;48.538;12.146;2023-05-16T02:48:23;14.10;99.90
4090;DHT22;2059;48.538;12.146;2023-05-16T02:53:25;14.10;99.90
4090;DHT22;2059;48.538;12.146;2023-05-16T02:58:28;14.10;99.90
4090;DHT22;2059;48.538;12.146;2023-05-16T03:03:29;14.10;99.90
4090;DHT22;2059;48.538;12.146;2023-05-16T03:08:32;14.10;99.90
4090;DHT22;2059;48.538;12.146;2023-05-16T03:13:36;14.10;99.90
4090;DHT22;2059;48.538;12.146;2023-05-16T03:18:37;14.10;99.90
4090;DHT22;2059;48.538;12.146;2023-05-16T03:23:39;14.10;99.90
4090;DHT22;2059;48.538;12.146;2023-05-16T03:28:42;14.10;99.90
4090;DHT22;2059;48.538;12.146;2023-05-16T03:33:44;14.00;99.90
4090;DHT22;2059;48.538;12.146;2023-05-16T03:38:46;14.00;99.90
4090;DHT22;2059;48.538;12.146;2023-05-16T03:43:49;14.10;99.90
4090;DHT22;2059;48.538;12.146;2023-05-16T03:48:51;14.00;99.90
4090;DHT22;2059;48.538;12.146;2023-05-16T03:53:53;14.00;99.90
4090;DHT22;2059;48.538;12.146;2023-05-16T03:58:56;14.00;99.90
4090;DHT22;2059;48.538;12.146;2023-05-16T04:03:57;14.00;99.90
4090;DHT22;2059;48.538;12.146;2023-05-16T04:08:59;14.00;99.90
4090;DHT22;2059;48.538;12.146;2023-05-16T04:14:03;13.90;99.90
4090;DHT22;2059;48.538;12.146;2023-05-16T04:19:05;14.00;99.90
4090;DHT22;2059;48.538;12.146;2023-05-16T04:24:07;13.90;99.90
4090;DHT22;2059;48.538;12.146;2023-05-16T04:29:10;14.00;99.90
4090;DHT22;2059;48.538;12.146;2023-05-16T04:34:12;13.90;99.90
4090;DHT22;2059;48.538;12.146;2023-05-16T04:39:15;14.10;99.90
4090;DHT22;2059;48.538;12.146;2023-05-16T04:44:18;14.00;99.90
4090;DHT22;2059;48.538;12.146;2023-05-16T04:49:20;14.00;99.90
4090;DHT22;2059;48.538;12.146;2023-05-16T04:54:22;14.00;99.90
4090;DHT22;2059;48.538;12.146;2023-05-16T04:59:27;14.10;99.90
4090;DHT22;2059;48.538;12.146;2023-05-16T05:04:29;14.20;99.90
4090;DHT22;2059;48.538;12.146;2023-05-16T05:09:30;14.20;99.90
4090;DHT22;2059;48.538;12.146;2023-05-16T05:14:33;14.20;99.90
4090;DHT22;2059;48.538;12.146;2023-05-16T05:19:35;14.30;99.90
4090;DHT22;2059;48.538;12.146;2023-05-16T05:24:37;14.40;99.90
4090;DHT22;2059;48.538;12.146;2023-05-16T05:29:40;14.50;99.90
4090;DHT22;2059;48.538;12.146;2023-05-16T05:34:42;14.50;99.90
4090;DHT22;2059;48.538;12.146;2023-05-16T05:39:44;14.60;99.90
4090;DHT22;2059;48.538;12.146;2023-05-16T05:44:47;14.70;99.90
4090;DHT22;2059;48.538;12.146;2023-05-16T05:49:49;14.80;99.90
4090;DHT22;2059;48.538;12.146;2023-05-16T05:54:51;15.10;99.90
4090;DHT22;2059;48.538;12.146;2023-05-16T05:59:54;15.20;99.90
4090;DHT22;2059;48.538;12.146;2023-05-16T06:04:56;15.40;99.90
4090;DHT22;2059;48.538;12.146;2023-05-16T06:09:57;15.50;99.90
4090;DHT22;2059;48.538;12.146;2023-05-16T06:15:06;15.70;99.90
4090;DHT22;2059;48.538;12.146;2023-05-16T06:20:08;15.70;99.90
4090;DHT22;2059;48.538;12.146;2023-05-16T06:25:10;15.80;99.90
4090;DHT22;2059;48.538;12.146;2023-05-16T06:30:14;16.10;99.90
4090;DHT22;2059;48.538;12.146;2023-05-16T06:35:15;16.60;99.90
4090;DHT22;2059;48.538;12.146;2023-05-16T06:40:17;16.80;99.90
4090;DHT22;2059;48.538;12.146;2023-05-16T06:45:20;16.80;99.90
4090;DHT22;2059;48.538;12.146;2023-05-16T06:50:22;16.80;99.90
4090;DHT22;2059;48.538;12.146;2023-05-16T06:55:24;16.80;99.90
4090;DHT22;2059;48.538;12.146;2023-05-16T07:00:27;17.10;99.90
4090;DHT22;2059;48.538;12.146;2023-05-16T07:05:29;17.30;99.90
4090;DHT22;2059;48.538;12.146;2023-05-16T07:10:31;17.60;99.90
4090;DHT22;2059;48.538;12.146;2023-05-16T07:15:34;17.60;99.90
4090;DHT22;2059;48.538;12.146;2023-05-16T07:20:36;17.50;99.90
4090;DHT22;2059;48.538;12.146;2023-05-16T07:25:37;17.50;99.90
4090;DHT22;2059;48.538;12.146;2023-05-16T07:30:41;17.90;99.90
4090;DHT22;2059;48.538;12.146;2023-05-16T07:35:42;18.40;99.90
4090;DHT22;2059;48.538;12.146;2023-05-16T07:40:44;18.80;99.90
4090;DHT22;2059;48.538;12.146;2023-05-16T07:45:47;19.10;99.90
4090;DHT22;2059;48.538;12.146;2023-05-16T07:50:49;19.00;99.90
4090;DHT22;2059;48.538;12.146;2023-05-16T07:55:51;18.80;99.90
4090;DHT22;2059;48.538;12.146;2023-05-16T08:00:54;18.50;99.90
4090;DHT22;2059;48.538;12.146;2023-05-16T08:05:56;18.20;99.90
4090;DHT22;2059;48.538;12.146;2023-05-16T08:10:58;18.00;99.90
4090;DHT22;2059;48.538;12.146;2023-05-16T08:16:01;18.10;99.90
4090;DHT22;2059;48.538;12.146;2023-05-16T08:21:03;18.10;99.90
4090;DHT22;2059;48.538;12.146;2023-05-16T08:26:04;18.40;99.90
4090;DHT22;2059;48.538;12.146;2023-05-16T08:31:08;18.70;99.90
4090;DHT22;2059;48.538;12.146;2023-05-16T08:36:10;18.80;99.90
4090;DHT22;2059;48.538;12.146;2023-05-16T08:41:12;18.80;99.90
4090;DHT22;2059;48.538;12.146;2023-05-16T08:46:16;18.70;99.90
4090;DHT22;2059;48.538;12.146;2023-05-16T08:51:24;18.50;99.90
4090;DHT22;2059;48.538;12.146;2023-05-16T08:56:26;18.50;99.90
4090;DHT22;2059;48.538;12.146;2023-05-16T09:01:29;18.30;99.90
4090;DHT22;2059;48.538;12.146;2023-05-16T09:06:31;18.40;99.90
4090;DHT22;2059;48.538;12.146;2023-05-16T09:11:33;18.60;99.90
4090;DHT22;2059;48.538;12.146;2023-05-16T09:16:36;18.80;99.90
4090;DHT22;2059;48.538;12.146;2023-05-16T09:21:39;19.00;99.90
4090;DHT22;2059;48.538;12.146;2023-05-16T09:26:43;19.50;99.90
4090;DHT22;2059;48.538;12.146;2023-05-16T09:31:48;20.60;99.30
4090;DHT22;2059;48.538;12.146;2023-05-16T09:36:53;21.30;98.20
4090;DHT22;2059;48.538;12.146;2023-05-16T09:41:57;21.30;97.50
4090;DHT22;2059;48.538;12.146;2023-05-16T09:47:01;21.30;97.90
4090;DHT22;2059;48.538;12.146;2023-05-16T09:52:03;21.50;97.10
4090;DHT22;2059;48.538;12.146;2023-05-16T09:57:06;21.20;97.50
4090;DHT22;2059;48.538;12.146;2023-05-16T10:02:09;21.50;97.00
4090;DHT22;2059;48.538;12.146;2023-05-16T10:07:11;21.50;96.50
4090;DHT22;2059;48.538;12.146;2023-05-16T10:12:14;21.50;97.20
4090;DHT22;2059;48.538;12.146;2023-05-16T10:17:17;21.40;96.40
4090;DHT22;2059;48.538;12.146;2023-05-16T10:22:21;21.40;96.30
4090;DHT22;2059;48.538;12.146;2023-05-16T10:27:24;21.30;96.80
4090;DHT22;2059;48.538;12.146;2023-05-16T10:32:27;21.40;97.00
4090;DHT22;2059;48.538;12.146;2023-05-16T10:37:30;21.80;95.50
4090;DHT22;2059;48.538;12.146;2023-05-16T10:42:33;21.80;95.30
4090;DHT22;2059;48.538;12.146;2023-05-16T10:47:36;21.70;94.70
4090;DHT22;2059;48.538;12.146;2023-05-16T10:52:38;21.80;94.40
4090;DHT22;2059;48.538;12.146;2023-05-16T10:57:43;21.50;94.80
4090;DHT22;2059;48.538;12.146;2023-05-16T11:02:46;21.50;94.80
4090;DHT22;2059;48.538;12.146;2023-05-16T11:08:01;21.30;95.70
4090;DHT22;2059;48.538;12.146;2023-05-16T11:13:07;21.40;95.60
4090;DHT22;2059;48.538;12.146;2023-05-16T11:18:15;21.40;95.40
4090;DHT22;2059;48.538;12.146;2023-05-16T11:23:22;21.50;94.10
4090;DHT22;2059;48.538;12.146;2023-05-16T11:28:25;21.40;94.40
4090;DHT22;2059;48.538;12.146;2023-05-16T11:33:30;21.30;94.00
4090;DHT22;2059;48.538;12.146;2023-05-16T11:38:34;21.30;94.70
4090;DHT22;2059;48.538;12.146;2023-05-16T11:43:40;21.30;94.30
4090;DHT22;2059;48.538;12.146;2023-05-16T11:48:43;21.20;94.40
4090;DHT22;2059;48.538;12.146;2023-05-16T11:53:47;21.20;94.40
4090;DHT22;2059;48.538;12.146;2023-05-16T11:58:49;21.00;94.80
4090;DHT22;2059;48.538;12.146;2023-05-16T12:03:56;20.80;94.60
4090;DHT22;2059;48.538;12.146;2023-05-16T12:08:58;20.70;95.80
4090;DHT22;2059;48.538;12.146;2023-05-16T12:14:03;20.60;95.10
4090;DHT22;2059;48.538;12.146;2023-05-16T12:19:07;20.30;94.90
4090;DHT22;2059;48.538;12.146;2023-05-16T12:24:09;20.00;92.40
4090;DHT22;2059;48.538;12.146;2023-05-16T12:29:12;19.30;92.80
4090;DHT22;2059;48.538;12.146;2023-05-16T12:34:16;18.90;91.90
4090;DHT22;2059;48.538;12.146;2023-05-16T12:39:20;18.40;93.30
4090;DHT22;2059;48.538;12.146;2023-05-16T12:44:22;17.90;94.60
4090;DHT22;2059;48.538;12.146;2023-05-16T12:49:25;17.40;96.20
4090;DHT22;2059;48.538;12.146;2023-05-16T12:54:27;17.10;96.90
4090;DHT22;2059;48.538;12.146;2023-05-16T12:59:29;16.90;98.00
4090;DHT22;2059;48.538;12.146;2023-05-16T13:04:32;16.90;98.10
4090;DHT22;2059;48.538;12.146;2023-05-16T13:09:34;16.80;98.50
4090;DHT22;2059;48.538;12.146;2023-05-16T13:14:36;16.80;99.10
4090;DHT22;2059;48.538;12.146;2023-05-16T13:19:39;16.80;99.20
4090;DHT22;2059;48.538;12.146;2023-05-16T13:24:41;16.80;99.80
4090;DHT22;2059;48.538;12.146;2023-05-16T13:29:43;17.00;99.50
4090;DHT22;2059;48.538;12.146;2023-05-16T13:34:46;16.80;99.90
4090;DHT22;2059;48.538;12.146;2023-05-16T13:39:48;16.70;99.90
4090;DHT22;2059;48.538;12.146;2023-05-16T13:44:50;16.70;99.90
4090;DHT22;2059;48.538;12.146;2023-05-16T13:49:53;16.80;99.90
4090;DHT22;2059;48.538;12.146;2023-05-16T13:54:55;16.80;99.90
4090;DHT22;2059;48.538;12.146;2023-05-16T13:59:56;17.00;99.90
4090;DHT22;2059;48.538;12.146;2023-05-16T14:04:59;17.10;99.90
4090;DHT22;2059;48.538;12.146;2023-05-16T14:10:01;17.40;99.90
4090;DHT22;2059;48.538;12.146;2023-05-16T14:15:04;17.40;99.90
4090;DHT22;2059;48.538;12.146;2023-05-16T14:20:08;17.30;99.90
4090;DHT22;2059;48.538;12.146;2023-05-16T14:25:10;17.10;99.90
4090;DHT22;2059;48.538;12.146;2023-05-16T14:30:12;17.00;99.90
4090;DHT22;2059;48.538;12.146;2023-05-16T14:35:15;16.90;99.90
4090;DHT22;2059;48.538;12.146;2023-05-16T14:40:17;16.80;99.50
4090;DHT22;2059;48.538;12.146;2023-05-16T14:45:21;16.40;99.90
4090;DHT22;2059;48.538;12.146;2023-05-16T14:50:24;16.30;99.90
4090;DHT22;2059;48.538;12.146;2023-05-16T14:55:26;16.20;99.90
4090;DHT22;2059;48.538;12.146;2023-05-16T15:00:27;16.30;99.90
4090;DHT22;2059;48.538;12.146;2023-05-16T15:05:31;16.50;99.90
4090;DHT22;2059;48.538;12.146;2023-05-16T15:10:32;16.50;99.90
4090;DHT22;2059;48.538;12.146;2023-05-16T15:15:34;16.80;99.90
4090;DHT22;2059;48.538;12.146;2023-05-16T15:20:39;16.90;99.90
4090;DHT22;2059;48.538;12.146;2023-05-16T15:25:41;16.90;99.90
4090;DHT22;2059;48.538;12.146;2023-05-16T15:30:42;17.00;99.90
4090;DHT22;2059;48.538;12.146;2023-05-16T15:35:45;17.00;99.90
4090;DHT22;2059;48.538;12.146;2023-05-16T15:40:47;17.10;99.90
4090;DHT22;2059;48.538;12.146;2023-05-16T15:45:49;16.90;99.90
4090;DHT22;2059;48.538;12.146;2023-05-16T15:50:52;16.90;99.90
4090;DHT22;2059;48.538;12.146;2023-05-16T15:55:54;16.80;99.90
4090;DHT22;2059;48.538;12.146;2023-05-16T16:00:57;16.80;99.90
4090;DHT22;2059;48.538;12.146;2023-05-16T16:06:00;16.60;99.90
4090;DHT22;2059;48.538;12.146;2023-05-16T16:11:01;16.30;99.90
4090;DHT22;2059;48.538;12.146;2023-05-16T16:16:04;16.10;99.90
4090;DHT22;2059;48.538;12.146;2023-05-16T16:21:08;16.10;99.90
4090;DHT22;2059;48.538;12.146;2023-05-16T16:26:10;16.00;99.90
4090;DHT22;2059;48.538;12.146;2023-05-16T16:31:12;15.80;99.90
4090;DHT22;2059;48.538;12.146;2023-05-16T16:36:15;15.80;99.90
4090;DHT22;2059;48.538;12.146;2023-05-16T16:41:17;15.80;99.90
4090;DHT22;2059;48.538;12.146;2023-05-16T16:46:19;15.60;99.90
4090;DHT22;2059;48.538;12.146;2023-05-16T16:51:23;15.60;99.90
4090;DHT22;2059;48.538;12.146;2023-05-16T16:56:25;15.60;99.90
4090;DHT22;2059;48.538;12.146;2023-05-16T17:01:28;15.60;99.90
4090;DHT22;2059;48.538;12.146;2023-05-16T17:06:33;15.60;99.90
4090;DHT22;2059;48.538;12.146;2023-05-16T17:11:35;15.60;99.90
4090;DHT22;2059;48.538;12.146;2023-05-16T17:16:39;15.50;99.90
4090;DHT22;2059;48.538;12.146;2023-05-16T17:21:43;15.50;99.90
4090;DHT22;2059;48.538;12.146;2023-05-16T17:26:46;15.50;99.90
4090;DHT22;2059;48.538;12.146;2023-05-16T17:31:48;15.50;99.90
4090;DHT22;2059;48.538;12.146;2023-05-16T17:36:51;15.30;99.90
4090;DHT22;2059;48.538;12.146;2023-05-16T17:41:53;15.40;99.90
4090;DHT22;2059;48.538;12.146;2023-05-16T17:46:56;15.40;99.90
4090;DHT22;2059;48.538;12.146;2023-05-16T17:52:00;15.30;99.90
4090;DHT22;2059;48.538;12.146;2023-05-16T17:57:02;15.20;99.90
4090;DHT22;2059;48.538;12.146;2023-05-16T18:02:06;15.20;99.90
4090;DHT22;2059;48.538;12.146;2023-05-16T18:07:10;15.20;99.90
4090;DHT22;2059;48.538;12.146;2023-05-16T18:12:12;15.10;99.90
4090;DHT22;2059;48.538;12.146;2023-05-16T18:17:14;15.00;99.90
4090;DHT22;2059;48.538;12.146;2023-05-16T18:22:18;15.00;99.90
4090;DHT22;2059;48.538;12.146;2023-05-16T18:27:20;14.90;99.90
4090;DHT22;2059;48.538;12.146;2023-05-16T18:32:22;14.90;99.90
4090;DHT22;2059;48.538;12.146;2023-05-16T18:37:27;14.80;99.90
4090;DHT22;2059;48.538;12.146;2023-05-16T18:42:29;14.60;99.90
4090;DHT22;2059;48.538;12.146;2023-05-16T18:47:32;14.50;99.90
4090;DHT22;2059;48.538;12.146;2023-05-16T18:52:36;14.50;99.90
4090;DHT22;2059;48.538;12.146;2023-05-16T18:57:39;14.40;99.90
4090;DHT22;2059;48.538;12.146;2023-05-16T19:02:44;14.30;99.90
4090;DHT22;2059;48.538;12.146;2023-05-16T19:07:47;14.10;99.90
4090;DHT22;2059;48.538;12.146;2023-05-16T19:12:49;14.30;99.90
4090;DHT22;2059;48.538;12.146;2023-05-16T19:17:51;14.20;99.90
4090;DHT22;2059;48.538;12.146;2023-05-16T19:22:54;14.30;99.90
4090;DHT22;2059;48.538;12.146;2023-05-16T19:27:56;14.20;99.90
4090;DHT22;2059;48.538;12.146;2023-05-16T19:32:58;14.20;99.90
4090;DHT22;2059;48.538;12.146;2023-05-16T19:38:02;14.10;99.90
4090;DHT22;2059;48.538;12.146;2023-05-16T19:43:03;14.10;99.90
4090;DHT22;2059;48.538;12.146;2023-05-16T19:48:06;14.00;99.90
4090;DHT22;2059;48.538;12.146;2023-05-16T19:53:10;13.80;99.90
4090;DHT22;2059;48.538;12.146;2023-05-16T19:58:11;13.80;99.90
4090;DHT22;2059;48.538;12.146;2023-05-16T20:03:13;13.80;99.90
4090;DHT22;2059;48.538;12.146;2023-05-16T20:08:17;13.80;99.90
4090;DHT22;2059;48.538;12.146;2023-05-16T20:13:19;13.70;99.90
4090;DHT22;2059;48.538;12.146;2023-05-16T20:18:21;13.70;99.90
4090;DHT22;2059;48.538;12.146;2023-05-16T20:23:24;13.60;99.90
4090;DHT22;2059;48.538;12.146;2023-05-16T20:28:26;13.60;99.90
4090;DHT22;2059;48.538;12.146;2023-05-16T20:33:28;13.60;99.90
4090;DHT22;2059;48.538;12.146;2023-05-16T20:38:31;13.60;99.90
4090;DHT22;2059;48.538;12.146;2023-05-16T20:43:33;13.60;99.90
4090;DHT22;2059;48.538;12.146;2023-05-16T20:48:35;13.50;99.90
4090;DHT22;2059;48.538;12.146;2023-05-16T20:53:38;13.60;99.90
4090;DHT22;2059;48.538;12.146;2023-05-16T20:58:39;13.60;99.90
4090;DHT22;2059;48.538;12.146;2023-05-16T21:03:43;13.60;99.70
4090;DHT22;2059;48.538;12.146;2023-05-16T21:08:46;13.60;99.70
4090;DHT22;2059;48.538;12.146;2023-05-16T21:13:47;13.40;99.90
4090;DHT22;2059;48.538;12.146;2023-05-16T21:18:49;13.50;99.90
4090;DHT22;2059;48.538;12.146;2023-05-16T21:23:52;13.50;99.40
4090;DHT22;2059;48.538;12.146;2023-05-16T21:28:55;13.40;99.80
4090;DHT22;2059;48.538;12.146;2023-05-16T21:33:57;13.40;99.80
4090;DHT22;2059;48.538;12.146;2023-05-16T21:39:00;13.50;99.90
4090;DHT22;2059;48.538;12.146;2023-05-16T21:44:02;13.50;99.90
4090;DHT22;2059;48.538;12.146;2023-05-16T21:49:03;13.50;99.80
4090;DHT22;2059;48.538;12.146;2023-05-16T21:54:06;13.40;98.90
4090;DHT22;2059;48.538;12.146;2023-05-16T21:59:08;13.40;99.80
4090;DHT22;2059;48.538;12.146;2023-05-16T22:04:10;13.60;99.00
4090;DHT22;2059;48.538;12.146;2023-05-16T22:09:13;13.40;99.00
4090;DHT22;2059;48.538;12.146;2023-05-16T22:14:15;13.40;98.80
4090;DHT22;2059;48.538;12.146;2023-05-16T22:19:16;13.40;98.40
4090;DHT22;2059;48.538;12.146;2023-05-16T22:24:20;13.40;98.60
4090;DHT22;2059;48.538;12.146;2023-05-16T22:29:21;13.30;99.40
4090;DHT22;2059;48.538;12.146;2023-05-16T22:34:23;13.30;99.10
4090;DHT22;2059;48.538;12.146;2023-05-16T22:39:26;13.30;98.50
4090;DHT22;2059;48.538;12.146;2023-05-16T22:44:28;13.30;98.10
4090;DHT22;2059;48.538;12.146;2023-05-16T22:49:30;13.40;98.30
4090;DHT22;2059;48.538;12.146;2023-05-16T22:54:33;13.30;97.70
4090;DHT22;2059;48.538;12.146;2023-05-16T22:59:35;13.20;98.20
4090;DHT22;2059;48.538;12.146;2023-05-16T23:04:37;13.20;98.40
4090;DHT22;2059;48.538;12.146;2023-05-16T23:09:40;13.20;98.30
4090;DHT22;2059;48.538;12.146;2023-05-16T23:14:42;13.30;97.80
4090;DHT22;2059;48.538;12.146;2023-05-16T23:19:44;13.10;97.70
4090;DHT22;2059;48.538;12.146;2023-05-16T23:24:47;13.20;97.60
4090;DHT22;2059;48.538;12.146;2023-05-16T23:29:48;13.10;98.00
4090;DHT22;2059;48.538;12.146;2023-05-16T23:34:50;13.10;98.10
4090;DHT22;2059;48.538;12.146;2023-05-16T23:39:53;13.10;97.80
4090;DHT22;2059;48.538;12.146;2023-05-16T23:44:55;13.00;97.40
4090;DHT22;2059;48.538;12.146;2023-05-16T23:49:57;13.00;97.80
4090;DHT22;2059;48.538;12.146;2023-05-16T23:55:00;13.00;97.70
